Time;durP1;ratioP1;P1;durP2;ratioP2;P2;SDS_P1;SDS_P2;PMS_P1;PMS_P2;Temp;Humidity;BMP_temperature;BMP_pressure;BME280_temperature;BME280_humidity;BME280_pressure;Samples;Min_cycle;Max_cycle;Signal;HPM_P1;HPM_P2
2022/10/14 00:01:25;;;;;;;14.55;10.70;;;10.50;99.90;;;;;;5053733;28;20053;-63
2022/10/14 00:03:53;;;;;;;22.80;11.77;;;10.40;99.90;;;;;;5055207;28;20045;-63
2022/10/14 00:06:21;;;;;;;89.35;21.65;;;10.40;99.90;;;;;;5053248;28;20053;-63
2022/10/14 00:08:47;;;;;;;17.67;9.30;;;10.40;99.90;;;;;;5053543;28;20044;-63
2022/10/14 00:11:19;;;;;;;18.88;10.60;;;10.30;99.90;;;;;;5053654;28;20037;-63
2022/10/14 00:13:45;;;;;;;13.85;8.75;;;10.40;99.90;;;;;;5053289;28;20068;-63
2022/10/14 00:16:17;;;;;;;14.85;8.85;;;10.30;99.90;;;;;;5054974;28;20426;-63
2022/10/14 00:18:43;;;;;;;21.05;12.18;;;10.30;99.90;;;;;;5054046;28;20041;-63
2022/10/14 00:21:09;;;;;;;27.45;10.27;;;10.30;99.90;;;;;;5054103;28;20375;-63
2022/10/14 00:23:35;;;;;;;35.22;14.13;;;10.30;99.90;;;;;;5053296;28;20051;-63
2022/10/14 00:26:00;;;;;;;22.67;10.43;;;10.20;99.90;;;;;;5053989;28;20135;-63
2022/10/14 00:28:26;;;;;;;63.15;19.77;;;10.20;99.90;;;;;;5054766;28;20087;-63
2022/10/14 00:30:54;;;;;;;29.27;13.93;;;10.20;99.90;;;;;;5054534;28;20072;-63
2022/10/14 00:33:20;;;;;;;49.13;22.00;;;10.20;99.90;;;;;;5052684;28;20041;-63
2022/10/14 00:35:59;;;;;;;35.70;14.25;;;10.20;99.90;;;;;;5053116;28;20128;-63
2022/10/14 00:38:25;;;;;;;32.55;14.35;;;10.20;99.90;;;;;;5052938;28;20094;-63
2022/10/14 00:40:51;;;;;;;38.55;17.88;;;10.20;99.90;;;;;;5052773;28;20045;-63
2022/10/14 00:43:17;;;;;;;34.92;16.23;;;10.20;99.90;;;;;;5052824;28;20041;-63
2022/10/14 00:45:43;;;;;;;39.38;15.32;;;10.30;99.90;;;;;;5053374;28;20048;-63
2022/10/14 00:48:09;;;;;;;81.13;21.95;;;10.30;99.90;;;;;;5052504;28;20045;-63
2022/10/14 00:50:35;;;;;;;31.52;11.85;;;10.30;99.90;;;;;;5035941;28;20082;-63
2022/10/14 00:53:02;;;;;;;23.52;11.38;;;10.30;99.90;;;;;;5036607;28;20500;-63
2022/10/14 00:55:28;;;;;;;29.52;13.13;;;10.30;99.90;;;;;;5053559;28;20048;-63
2022/10/14 00:57:54;;;;;;;24.30;10.73;;;10.30;99.90;;;;;;5053790;28;20506;-63
2022/10/14 01:00:21;;;;;;;56.00;14.90;;;10.30;99.90;;;;;;5054153;28;20049;-63
2022/10/14 01:02:47;;;;;;;81.60;20.13;;;10.30;99.90;;;;;;5052425;28;20037;-63
2022/10/14 01:05:16;;;;;;;42.03;13.95;;;10.30;99.90;;;;;;5052555;28;20393;-64
2022/10/14 01:07:54;;;;;;;34.50;15.07;;;10.30;99.90;;;;;;5036323;28;20477;-63
2022/10/14 01:10:28;;;;;;;38.17;13.43;;;10.30;99.90;;;;;;5051669;28;20495;-63
2022/10/14 01:12:59;;;;;;;45.05;17.58;;;10.30;99.90;;;;;;5053745;28;20048;-63
2022/10/14 01:15:53;;;;;;;36.15;12.23;;;10.30;99.90;;;;;;5051902;28;20897;-63
2022/10/14 01:18:24;;;;;;;79.82;23.42;;;10.30;99.90;;;;;;5052637;28;20512;-63
2022/10/14 01:21:02;;;;;;;26.65;11.73;;;10.30;99.90;;;;;;5053695;28;20037;-63
2022/10/14 01:24:12;;;;;;;51.85;17.27;;;10.30;99.90;;;;;;5053266;28;20120;-63
2022/10/14 01:26:58;;;;;;;35.65;13.55;;;10.30;99.90;;;;;;5037482;28;20056;-63
2022/10/14 01:29:35;;;;;;;356.15;51.53;;;10.20;99.90;;;;;;5051439;28;20390;-63
2022/10/14 01:32:12;;;;;;;33.03;15.98;;;10.20;99.90;;;;;;5052252;28;20048;-63
2022/10/14 01:34:49;;;;;;;53.78;15.00;;;10.20;99.90;;;;;;5053280;28;20040;-63
2022/10/14 01:37:20;;;;;;;33.08;13.90;;;10.30;99.90;;;;;;5051634;28;20037;-63
2022/10/14 01:39:52;;;;;;;60.67;14.40;;;10.30;99.90;;;;;;5051937;28;20040;-63
2022/10/14 01:42:26;;;;;;;47.15;13.75;;;10.30;99.90;;;;;;5051906;28;20045;-63
2022/10/14 01:45:07;;;;;;;29.15;12.93;;;10.30;99.90;;;;;;5051103;28;20504;-63
2022/10/14 01:47:35;;;;;;;162.52;35.08;;;10.30;99.90;;;;;;5051672;28;20051;-63
2022/10/14 01:50:10;;;;;;;23.88;13.18;;;10.30;99.90;;;;;;5051858;28;20049;-63
2022/10/14 01:52:41;;;;;;;48.78;15.05;;;10.30;99.90;;;;;;5051749;28;20473;-63
2022/10/14 01:55:12;;;;;;;52.55;16.85;;;10.30;99.90;;;;;;5051443;28;20130;-63
2022/10/14 01:57:41;;;;;;;194.15;35.50;;;10.30;99.90;;;;;;5051705;28;20084;-63
2022/10/14 02:00:08;;;;;;;38.75;15.05;;;10.30;99.90;;;;;;5052954;28;20080;-63
2022/10/14 02:02:37;;;;;;;107.82;15.43;;;10.30;99.90;;;;;;5051344;28;20041;-63
2022/10/14 02:05:18;;;;;;;161.20;26.23;;;10.30;99.90;;;;;;5034388;28;20098;-63
2022/10/14 02:07:48;;;;;;;67.68;15.55;;;10.40;99.90;;;;;;5052735;28;20107;-63
2022/10/14 02:10:36;;;;;;;63.58;13.32;;;10.30;99.90;;;;;;5051721;28;20041;-63
2022/10/14 02:13:29;;;;;;;37.35;9.93;;;10.30;99.90;;;;;;5050933;28;20554;-63
2022/10/14 02:15:58;;;;;;;66.18;16.17;;;10.30;99.90;;;;;;5051160;28;20131;-63
2022/10/14 02:18:23;;;;;;;53.88;11.48;;;10.30;99.90;;;;;;5050914;28;20201;-63
2022/10/14 02:20:58;;;;;;;47.30;11.80;;;10.30;99.90;;;;;;5034681;28;20072;-63
2022/10/14 02:23:30;;;;;;;;;;;10.30;99.90;;;;;;5051521;28;20521;-63
2022/10/14 02:25:56;;;;;;;66.78;18.05;;;10.20;99.90;;;;;;5051789;28;19921;-63
2022/10/14 02:28:26;;;;;;;34.25;11.13;;;10.20;99.90;;;;;;5052544;28;20400;-63
2022/10/14 02:30:58;;;;;;;43.20;10.25;;;10.20;99.90;;;;;;5050902;28;20053;-63
2022/10/14 02:33:29;;;;;;;18.40;7.75;;;10.20;99.90;;;;;;5050962;28;20041;-63
2022/10/14 02:35:55;;;;;;;65.93;15.15;;;10.20;99.90;;;;;;5050740;28;20194;-63
2022/10/14 02:38:23;;;;;;;42.55;10.40;;;10.20;99.90;;;;;;5052160;28;20559;-63
2022/10/14 02:40:49;;;;;;;37.30;10.77;;;10.20;99.90;;;;;;5050666;28;20493;-63
2022/10/14 02:43:16;;;;;;;25.55;8.88;;;10.20;99.90;;;;;;5050648;28;20132;-63
2022/10/14 02:45:43;;;;;;;43.88;11.02;;;10.20;99.90;;;;;;5051027;28;20080;-63
2022/10/14 02:48:09;;;;;;;41.92;11.13;;;10.20;99.90;;;;;;5050387;28;20115;-63
2022/10/14 02:50:35;;;;;;;47.58;12.20;;;10.20;99.90;;;;;;5033954;28;20134;-63
2022/10/14 02:53:01;;;;;;;63.95;18.83;;;10.20;99.90;;;;;;5050864;28;20048;-63
2022/10/14 02:55:27;;;;;;;67.55;16.58;;;10.20;99.90;;;;;;5051558;28;20099;-63
2022/10/14 02:57:53;;;;;;;31.65;9.25;;;10.20;99.90;;;;;;5050351;28;20052;-63
2022/10/14 03:00:19;;;;;;;44.80;11.27;;;10.30;99.90;;;;;;5050566;28;20045;-63
2022/10/14 03:02:45;;;;;;;29.05;10.15;;;10.30;99.90;;;;;;5050592;28;20119;-63
2022/10/14 03:05:10;;;;;;;43.50;12.73;;;10.30;99.90;;;;;;5050806;28;20553;-63
2022/10/14 03:07:36;;;;;;;34.35;11.40;;;10.30;99.90;;;;;;5051420;28;20053;-63
2022/10/14 03:10:02;;;;;;;39.90;11.82;;;10.30;99.90;;;;;;5033921;28;20052;-63
2022/10/14 03:12:28;;;;;;;64.43;15.23;;;10.40;99.90;;;;;;5051552;28;20116;-63
2022/10/14 03:14:54;;;;;;;55.30;12.63;;;10.30;99.90;;;;;;5051244;28;20475;-63
2022/10/14 03:17:19;;;;;;;75.60;17.02;;;10.40;99.90;;;;;;5050840;28;20087;-63
2022/10/14 03:19:45;;;;;;;33.30;12.18;;;10.30;99.90;;;;;;5050435;28;20393;-64
2022/10/14 03:22:10;;;;;;;59.05;13.98;;;10.40;99.90;;;;;;5050370;28;20044;-63
2022/10/14 03:24:36;;;;;;;54.45;14.55;;;10.30;99.90;;;;;;5050526;28;20051;-63
2022/10/14 03:27:02;;;;;;;79.13;16.67;;;10.30;99.90;;;;;;5050335;28;20045;-63
2022/10/14 03:29:28;;;;;;;56.20;15.95;;;10.40;99.90;;;;;;5049782;28;20045;-63
2022/10/14 03:31:53;;;;;;;46.25;15.20;;;10.30;99.90;;;;;;5050260;28;20041;-63
2022/10/14 03:34:19;;;;;;;60.05;17.33;;;10.30;99.90;;;;;;5051705;28;20045;-63
2022/10/14 03:36:45;;;;;;;60.03;17.92;;;10.30;99.90;;;;;;5050058;28;20389;-63
2022/10/14 03:39:11;;;;;;;67.25;17.08;;;10.30;99.90;;;;;;5051684;28;20428;-63
2022/10/14 03:41:37;;;;;;;58.15;18.80;;;10.30;99.90;;;;;;5047216;28;20064;-63
2022/10/14 03:44:03;;;;;;;96.07;19.65;;;10.30;99.90;;;;;;5013607;28;20042;-63
2022/10/14 03:46:28;;;;;;;83.53;19.55;;;10.30;99.90;;;;;;5063709;28;20500;-63
2022/10/14 03:48:54;;;;;;;184.35;36.03;;;10.30;99.90;;;;;;5064018;28;20390;-63
2022/10/14 03:51:20;;;;;;;61.47;16.88;;;10.30;99.90;;;;;;5066797;28;20462;-63
2022/10/14 03:53:46;;;;;;;159.88;30.55;;;10.20;99.90;;;;;;5050896;28;20424;-63
2022/10/14 03:56:11;;;;;;;57.80;16.25;;;10.10;99.90;;;;;;5050220;28;20466;-63
2022/10/14 03:58:37;;;;;;;31.85;14.18;;;10.10;99.90;;;;;;5051201;28;20040;-63
2022/10/14 04:01:03;;;;;;;73.80;17.95;;;10.10;99.90;;;;;;5050155;28;20441;-63
2022/10/14 04:03:29;;;;;;;53.25;12.70;;;10.10;99.90;;;;;;5050117;28;20041;-63
2022/10/14 04:05:54;;;;;;;100.40;19.13;;;10.10;99.90;;;;;;5049629;28;20494;-63
2022/10/14 04:08:20;;;;;;;103.93;20.40;;;10.00;99.90;;;;;;5050273;28;20082;-63
2022/10/14 04:10:51;;;;;;;39.15;11.88;;;9.90;99.90;;;;;;5054973;28;20037;-63
2022/10/14 04:13:17;;;;;;;54.60;14.60;;;9.90;99.90;;;;;;5053237;28;20086;-63
2022/10/14 04:15:43;;;;;;;47.15;12.93;;;9.80;99.90;;;;;;5053682;28;20484;-63
2022/10/14 04:18:08;;;;;;;35.60;10.85;;;9.70;99.90;;;;;;5054342;28;20462;-63
2022/10/14 04:20:34;;;;;;;95.00;17.38;;;9.60;99.90;;;;;;5053907;28;20053;-63
2022/10/14 04:22:59;;;;;;;56.83;13.55;;;9.60;99.90;;;;;;5054316;28;20048;-63
2022/10/14 04:25:26;;;;;;;50.75;12.07;;;9.60;99.90;;;;;;5052484;28;20052;-63
2022/10/14 04:27:51;;;;;;;44.80;12.05;;;9.60;99.90;;;;;;5053076;28;20051;-63
2022/10/14 04:30:17;;;;;;;41.22;11.32;;;9.50;99.90;;;;;;5053396;28;20044;-63
2022/10/14 04:32:42;;;;;;;54.80;17.00;;;9.50;99.90;;;;;;5053099;28;20098;-63
2022/10/14 04:35:08;;;;;;;37.95;13.88;;;9.50;99.90;;;;;;5053960;28;20040;-63
2022/10/14 04:37:34;;;;;;;127.85;28.17;;;9.50;99.90;;;;;;5054525;28;20037;-63
2022/10/14 04:40:00;;;;;;;32.08;11.68;;;9.50;99.90;;;;;;5053705;28;20559;-63
2022/10/14 04:42:25;;;;;;;49.83;15.30;;;9.60;99.90;;;;;;5054166;28;20039;-63
2022/10/14 04:44:51;;;;;;;63.78;17.02;;;9.50;99.90;;;;;;5036455;28;20041;-63
2022/10/14 04:47:17;;;;;;;72.35;17.75;;;9.60;99.90;;;;;;5053701;28;20458;-63
2022/10/14 04:49:42;;;;;;;58.63;16.30;;;9.60;99.90;;;;;;5054137;28;20513;-63
2022/10/14 04:52:08;;;;;;;75.05;18.10;;;9.60;99.90;;;;;;5036562;28;20033;-63
2022/10/14 04:54:33;;;;;;;45.65;12.63;;;9.60;99.90;;;;;;5052216;28;20040;-63
2022/10/14 04:56:59;;;;;;;128.50;24.58;;;9.60;99.90;;;;;;5053979;28;20041;-63
2022/10/14 04:59:25;;;;;;;53.42;14.68;;;9.60;99.90;;;;;;5036282;28;20074;-63
2022/10/14 05:01:50;;;;;;;61.88;14.93;;;9.60;99.90;;;;;;5051896;28;20044;-63
2022/10/14 05:04:16;;;;;;;119.82;24.33;;;9.60;99.90;;;;;;5052602;28;20037;-63
2022/10/14 05:06:42;;;;;;;68.38;13.32;;;9.60;99.90;;;;;;5053052;28;20043;-63
2022/10/14 05:09:07;;;;;;;49.55;14.73;;;9.60;99.90;;;;;;5053274;28;20120;-63
2022/10/14 05:11:33;;;;;;;22.67;11.55;;;9.60;99.90;;;;;;5053315;28;20075;-63
2022/10/14 05:13:58;;;;;;;127.80;25.52;;;9.70;99.90;;;;;;5053978;28;20045;-63
2022/10/14 05:16:24;;;;;;;131.90;29.45;;;9.70;99.90;;;;;;5051868;28;20044;-63
2022/10/14 05:18:50;;;;;;;120.78;23.58;;;9.70;99.90;;;;;;5052275;28;20044;-63
2022/10/14 05:21:15;;;;;;;50.78;14.43;;;9.70;99.90;;;;;;5052035;28;20044;-63
2022/10/14 05:23:41;;;;;;;55.92;14.82;;;9.70;99.90;;;;;;5052944;28;20033;-63
2022/10/14 05:26:09;;;;;;;85.65;22.50;;;9.70;99.90;;;;;;5051538;28;20493;-63
2022/10/14 05:28:37;;;;;;;149.27;28.60;;;9.80;99.90;;;;;;5051720;28;20106;-63
2022/10/14 05:31:03;;;;;;;44.42;13.38;;;9.80;99.90;;;;;;5052120;28;20099;-63
2022/10/14 05:33:31;;;;;;;231.57;31.85;;;9.80;99.90;;;;;;5053513;28;20501;-63
2022/10/14 05:35:56;;;;;;;52.33;15.70;;;9.80;99.90;;;;;;5052815;28;20496;-63
2022/10/14 05:38:22;;;;;;;122.20;23.13;;;9.80;99.90;;;;;;5053637;28;20036;-63
2022/10/14 05:40:55;;;;;;;55.67;15.18;;;9.80;99.90;;;;;;5052965;28;20041;-63
2022/10/14 05:43:21;;;;;;;57.65;15.85;;;9.80;99.90;;;;;;5051544;28;20049;-63
2022/10/14 05:45:47;;;;;;;52.15;14.85;;;9.80;99.90;;;;;;5053018;28;20082;-63
2022/10/14 05:48:12;;;;;;;108.70;20.88;;;9.80;99.90;;;;;;5052886;28;20485;-63
2022/10/14 05:50:38;;;;;;;42.00;13.35;;;9.80;99.90;;;;;;5034888;28;20497;-63
2022/10/14 05:53:04;;;;;;;141.63;24.98;;;9.80;99.90;;;;;;5052768;28;20044;-63
2022/10/14 05:55:30;;;;;;;136.75;23.02;;;9.80;99.90;;;;;;5051276;28;20049;-63
2022/10/14 05:57:56;;;;;;;142.98;23.60;;;9.80;99.90;;;;;;5051306;28;20170;-63
2022/10/14 06:00:22;;;;;;;74.82;18.30;;;9.80;99.90;;;;;;5052790;28;20113;-63
2022/10/14 06:02:47;;;;;;;173.60;25.58;;;9.90;99.90;;;;;;5051580;28;20523;-63
2022/10/14 06:05:13;;;;;;;61.92;15.65;;;9.80;99.90;;;;;;5051689;28;20037;-63
2022/10/14 06:07:39;;;;;;;82.03;20.75;;;9.90;99.90;;;;;;5035246;28;20040;-63
2022/10/14 06:10:05;;;;;;;54.72;15.13;;;9.90;99.90;;;;;;5051243;28;20049;-63
2022/10/14 06:12:31;;;;;;;64.32;16.55;;;9.90;99.90;;;;;;5034197;28;20110;-63
2022/10/14 06:14:57;;;;;;;87.13;18.13;;;9.90;99.90;;;;;;5051053;28;20501;-63
2022/10/14 06:17:23;;;;;;;55.92;16.80;;;9.90;99.90;;;;;;5051615;28;20068;-63
2022/10/14 06:19:51;;;;;;;73.30;19.23;;;10.00;99.90;;;;;;5051582;28;20028;-63
2022/10/14 06:22:17;;;;;;;83.18;21.13;;;10.00;99.90;;;;;;5052510;28;20125;-63
2022/10/14 06:24:42;;;;;;;53.33;17.90;;;10.00;99.90;;;;;;5051984;28;20084;-63
2022/10/14 06:27:08;;;;;;;65.90;19.73;;;10.00;99.90;;;;;;5051139;28;20128;-63
2022/10/14 06:29:36;;;;;;;69.32;18.25;;;10.00;99.90;;;;;;5052364;28;20044;-63
2022/10/14 06:32:07;;;;;;;98.63;24.27;;;10.10;99.90;;;;;;5050356;28;20049;-63
2022/10/14 06:34:33;;;;;;;93.57;23.42;;;10.10;99.90;;;;;;5050411;28;20037;-63
2022/10/14 06:36:59;;;;;;;143.85;26.00;;;10.10;99.90;;;;;;5052219;28;20124;-63
2022/10/14 06:39:25;;;;;;;66.95;23.20;;;10.20;99.90;;;;;;5051654;28;20067;-63
2022/10/14 06:41:51;;;;;;;78.93;18.05;;;10.20;99.90;;;;;;5052100;28;20064;-63
2022/10/14 06:44:16;;;;;;;67.43;19.63;;;10.20;99.90;;;;;;5051267;28;20119;-63
2022/10/14 06:46:43;;;;;;;73.63;19.90;;;10.20;99.90;;;;;;5050879;28;20478;-63
2022/10/14 06:49:08;;;;;;;47.72;17.42;;;10.20;99.90;;;;;;5050420;28;20053;-63
2022/10/14 06:51:34;;;;;;;64.75;21.27;;;10.20;99.90;;;;;;5052173;28;20040;-63
2022/10/14 06:54:00;;;;;;;50.85;18.52;;;10.30;99.90;;;;;;5050157;28;20525;-63
2022/10/14 06:56:26;;;;;;;110.00;26.45;;;10.30;99.90;;;;;;5050364;28;20080;-63
2022/10/14 06:58:55;;;;;;;39.08;15.95;;;10.30;99.90;;;;;;5052089;28;20078;-63
2022/10/14 07:01:21;;;;;;;85.30;24.33;;;10.30;99.90;;;;;;5048060;28;20517;-63
2022/10/14 07:03:47;;;;;;;50.33;19.38;;;10.40;99.90;;;;;;5046226;28;20428;-63
2022/10/14 07:06:13;;;;;;;52.58;19.48;;;10.40;99.90;;;;;;5049155;28;20045;-63
2022/10/14 07:08:39;;;;;;;68.70;18.90;;;10.40;99.90;;;;;;5048634;28;20037;-63
2022/10/14 07:11:05;;;;;;;63.30;19.60;;;10.50;99.90;;;;;;5045073;28;20052;-63
2022/10/14 07:13:32;;;;;;;91.75;31.05;;;10.50;99.90;;;;;;5048143;28;20443;-63
2022/10/14 07:15:58;;;;;;;49.63;20.17;;;10.50;99.90;;;;;;5049199;28;20566;-63
2022/10/14 07:18:24;;;;;;;37.88;17.85;;;10.50;99.90;;;;;;5048318;28;20048;-63
2022/10/14 07:20:50;;;;;;;32.65;16.25;;;10.60;99.90;;;;;;5049320;28;20048;-63
2022/10/14 07:23:16;;;;;;;51.45;18.30;;;10.50;99.90;;;;;;5049323;28;20033;-63
2022/10/14 07:25:42;;;;;;;58.25;18.00;;;10.60;99.90;;;;;;5031337;28;20067;-63
2022/10/14 07:28:08;;;;;;;46.85;15.95;;;10.50;99.90;;;;;;5047312;28;20044;-63
2022/10/14 07:30:34;;;;;;;61.83;17.63;;;10.50;99.90;;;;;;5048048;28;20145;-63
2022/10/14 08:13:31;;;;;;;30.55;16.17;;;10.70;99.90;;;;;;5051830;28;20166;-63
2022/10/14 08:15:56;;;;;;;34.05;17.13;;;10.70;99.90;;;;;;5051068;28;20044;-63
2022/10/14 08:18:24;;;;;;;38.90;17.88;;;10.80;99.90;;;;;;5051597;28;20036;-63
2022/10/14 08:20:50;;;;;;;57.55;29.85;;;10.80;99.90;;;;;;5051256;28;20504;-63
2022/10/14 08:23:16;;;;;;;34.72;20.13;;;10.80;99.90;;;;;;5051167;28;20051;-63
2022/10/14 08:25:42;;;;;;;33.67;15.25;;;10.90;99.90;;;;;;5051589;28;20524;-63
2022/10/14 08:28:08;;;;;;;30.73;15.98;;;10.90;99.90;;;;;;5050012;28;20053;-63
2022/10/14 08:30:34;;;;;;;33.38;17.63;;;11.00;99.90;;;;;;5050470;28;20139;-63
2022/10/14 08:33:00;;;;;;;37.90;18.60;;;11.10;99.90;;;;;;5049932;28;20541;-63
2022/10/14 08:35:26;;;;;;;27.25;15.20;;;11.20;99.90;;;;;;5050708;28;20053;-63
2022/10/14 08:37:59;;;;;;;46.40;26.23;;;11.20;99.90;;;;;;5051941;28;20532;-63
2022/10/14 08:40:32;;;;;;;33.78;17.33;;;11.30;99.90;;;;;;5033929;28;20524;-63
2022/10/14 08:43:22;;;;;;;29.60;16.10;;;11.30;99.90;;;;;;5054263;28;20405;-63
2022/10/14 08:45:57;;;;;;;31.15;15.20;;;11.30;99.90;;;;;;5052872;28;20037;-64
2022/10/14 08:48:27;;;;;;;35.90;21.35;;;11.40;99.90;;;;;;5052885;28;20084;-63
2022/10/14 08:51:09;;;;;;;29.33;16.15;;;11.40;99.90;;;;;;5053194;28;20055;-63
2022/10/14 08:53:49;;;;;;;25.90;15.18;;;11.50;99.90;;;;;;5053765;28;20045;-64
2022/10/14 08:56:16;;;;;;;29.38;16.27;;;11.50;99.90;;;;;;5052011;28;20037;-62
2022/10/14 08:58:44;;;;;;;28.80;15.13;;;11.50;99.90;;;;;;5052332;28;20080;-63
2022/10/14 09:01:27;;;;;;;28.23;14.82;;;11.50;99.90;;;;;;5053929;28;20072;-62
2022/10/14 09:03:57;;;;;;;75.78;36.63;;;11.60;99.90;;;;;;5053973;28;20077;-62
2022/10/14 09:06:28;;;;;;;76.65;38.25;;;11.60;99.90;;;;;;5052282;28;20123;-62
2022/10/14 09:09:17;;;;;;;73.38;36.72;;;11.70;99.90;;;;;;5052558;28;20565;-62
2022/10/14 09:11:47;;;;;;;40.60;22.30;;;11.70;99.90;;;;;;5045428;28;20080;-64
2022/10/14 09:14:17;;;;;;;39.70;19.23;;;11.80;99.90;;;;;;5049436;28;20037;-63
2022/10/14 09:16:45;;;;;;;31.70;17.33;;;11.80;99.90;;;;;;5051188;28;20041;-62
2022/10/14 09:19:19;;;;;;;33.65;19.73;;;11.90;99.90;;;;;;5053159;28;20053;-62
2022/10/14 09:21:53;;;;;;;36.05;18.50;;;11.90;99.90;;;;;;5053513;28;20056;-62
2022/10/14 09:24:25;;;;;;;36.03;19.10;;;11.90;99.90;;;;;;5052206;28;20504;-62
2022/10/14 09:27:02;;;;;;;34.08;18.73;;;11.90;99.90;;;;;;5052717;28;20073;-62
2022/10/14 09:29:39;;;;;;;61.88;28.75;;;12.00;99.90;;;;;;5052852;28;20037;-62
2022/10/14 09:32:10;;;;;;;78.05;50.97;;;12.00;99.90;;;;;;5053670;28;20549;-62
2022/10/14 09:34:46;;;;;;;44.65;23.92;;;12.00;99.90;;;;;;5051547;28;20102;-62
2022/10/14 09:37:26;;;;;;;52.13;29.42;;;12.10;99.90;;;;;;5053424;28;20033;-62
2022/10/14 09:39:55;;;;;;;49.78;24.52;;;12.10;99.90;;;;;;5035486;28;20040;-62
2022/10/14 09:42:43;;;;;;;38.72;23.67;;;12.10;99.90;;;;;;5052968;28;20036;-62
2022/10/14 09:45:15;;;;;;;47.42;24.52;;;12.20;99.90;;;;;;5051829;28;20055;-62
2022/10/14 09:47:44;;;;;;;38.72;22.08;;;12.20;99.90;;;;;;5053301;28;20082;-62
2022/10/14 09:50:19;;;;;;;44.75;22.95;;;12.20;99.90;;;;;;5052725;28;20044;-62
2022/10/14 09:52:53;;;;;;;41.28;24.02;;;12.30;99.90;;;;;;5051566;28;20049;-62
2022/10/14 09:55:22;;;;;;;40.47;23.52;;;12.30;99.90;;;;;;5053185;28;20041;-63
2022/10/14 09:58:03;;;;;;;37.85;22.60;;;12.40;99.90;;;;;;5034430;28;20524;-62
2022/10/14 10:00:31;;;;;;;41.63;23.60;;;12.40;99.90;;;;;;5051721;28;20075;-62
2022/10/14 10:02:56;;;;;;;38.22;22.75;;;12.40;99.90;;;;;;5034625;28;20106;-62
2022/10/14 10:05:32;;;;;;;48.30;24.40;;;12.50;99.90;;;;;;5051601;28;20087;-62
2022/10/14 10:08:16;;;;;;;39.67;21.90;;;12.50;99.90;;;;;;5052519;28;20045;-62
2022/10/14 10:10:59;;;;;;;41.85;23.95;;;12.50;99.90;;;;;;5051244;28;20040;-62
2022/10/14 10:13:45;;;;;;;34.10;21.35;;;12.50;99.90;;;;;;5052704;28;20041;-62
2022/10/14 10:16:24;;;;;;;41.22;21.88;;;12.50;99.90;;;;;;5051470;28;20071;-62
2022/10/14 10:18:54;;;;;;;39.10;21.20;;;12.60;99.90;;;;;;5050633;28;20261;-62
2022/10/14 10:21:31;;;;;;;38.88;22.95;;;12.60;99.90;;;;;;5052518;28;20087;-62
2022/10/14 10:23:59;;;;;;;42.35;20.35;;;12.60;99.90;;;;;;5051029;28;20115;-62
2022/10/14 10:26:33;;;;;;;37.45;20.00;;;12.60;99.90;;;;;;5050910;28;20053;-62
2022/10/14 10:29:04;;;;;;;37.17;19.77;;;12.70;99.90;;;;;;5051474;28;20371;-62
2022/10/14 10:31:45;;;;;;;35.10;20.58;;;12.70;99.90;;;;;;5051853;28;20037;-62
2022/10/14 10:34:42;;;;;;;33.58;19.98;;;12.80;99.90;;;;;;5052486;28;20175;-62
2022/10/14 10:37:32;;;;;;;29.70;17.25;;;12.80;99.90;;;;;;5050998;28;20053;-62
2022/10/14 10:40:16;;;;;;;30.92;19.20;;;12.80;99.90;;;;;;5050098;28;20037;-62
2022/10/14 10:43:05;;;;;;;31.73;18.73;;;12.90;99.90;;;;;;5050002;28;20488;-61
2022/10/14 10:45:56;;;;;;;30.40;17.80;;;13.00;99.90;;;;;;5046073;28;20481;-62
2022/10/14 10:49:04;;;;;;;31.58;18.27;;;13.00;99.90;;;;;;5040569;28;20076;-62
2022/10/14 10:52:00;;;;;;;39.60;23.75;;;13.10;99.90;;;;;;5045803;28;20051;-62
2022/10/14 10:54:39;;;;;;;42.70;24.23;;;13.10;99.90;;;;;;5041372;28;20167;-62
2022/10/14 10:57:47;;;;;;;25.20;14.88;;;13.10;99.90;;;;;;5051087;28;20375;-62
2022/10/14 11:00:16;;;;;;;23.52;13.35;;;13.20;99.90;;;;;;5033921;28;20056;-62
2022/10/14 11:03:09;;;;;;;24.90;15.98;;;13.20;99.90;;;;;;5050381;28;20036;-62
2022/10/14 11:05:54;;;;;;;22.95;13.35;;;13.30;99.90;;;;;;5044314;28;20521;-62
2022/10/14 11:14:41;;;;;;;19.73;12.35;;;13.30;99.90;;;;;;5030022;28;20049;-62
2022/10/14 11:17:44;;;;;;;23.88;14.45;;;13.40;99.90;;;;;;5040366;28;20049;-62
2022/10/14 11:20:47;;;;;;;18.35;12.05;;;13.40;99.90;;;;;;5031830;28;20045;-62
2022/10/14 11:23:18;;;;;;;17.15;11.07;;;13.40;99.90;;;;;;5016686;28;20064;-62
2022/10/14 11:26:10;;;;;;;19.77;10.93;;;13.50;99.90;;;;;;5051699;28;20068;-62
2022/10/14 11:28:52;;;;;;;19.58;11.07;;;13.50;99.90;;;;;;5025162;28;20494;-62
2022/10/14 11:31:31;;;;;;;17.08;10.10;;;13.50;99.90;;;;;;5065420;28;20124;-62
2022/10/14 11:34:56;;;;;;;15.70;9.57;;;13.60;99.90;;;;;;5033095;28;20048;-62
2022/10/14 11:37:55;;;;;;;13.32;8.38;;;13.60;99.90;;;;;;5037545;28;20505;-62
2022/10/14 11:40:53;;;;;;;15.48;9.38;;;13.50;99.90;;;;;;5075654;28;20067;-62
2022/10/14 11:43:40;;;;;;;16.75;9.77;;;13.50;99.90;;;;;;5052437;28;20040;-62
2022/10/14 11:46:10;;;;;;;15.43;9.63;;;13.50;99.90;;;;;;5034753;28;20054;-62
2022/10/14 11:48:42;;;;;;;18.35;10.90;;;13.50;99.90;;;;;;5051585;28;20045;-62
2022/10/14 11:51:21;;;;;;;15.77;9.30;;;13.50;99.90;;;;;;5051471;28;20045;-62
2022/10/14 11:54:10;;;;;;;15.48;9.00;;;13.50;99.90;;;;;;5052705;28;20611;-62
2022/10/14 11:57:03;;;;;;;15.75;8.43;;;13.50;99.90;;;;;;5052595;28;20915;-62
2022/10/14 11:59:38;;;;;;;11.73;6.55;;;13.50;99.90;;;;;;5051199;28;20037;-62
2022/10/14 12:02:39;;;;;;;13.40;7.95;;;13.40;99.90;;;;;;5051525;28;20504;-62
2022/10/14 12:05:34;;;;;;;12.93;7.50;;;13.40;99.90;;;;;;5044118;28;20059;-62
2022/10/14 12:08:13;;;;;;;12.68;7.20;;;13.40;99.90;;;;;;5053167;28;20083;-62
2022/10/14 12:10:50;;;;;;;10.63;6.32;;;13.40;99.90;;;;;;5051884;28;20049;-62
2022/10/14 12:13:30;;;;;;;13.48;7.10;;;13.40;99.90;;;;;;5052667;28;20044;-62
2022/10/14 12:15:59;;;;;;;11.07;6.15;;;13.40;99.90;;;;;;5049837;28;20413;-62
2022/10/14 12:18:28;;;;;;;17.67;9.38;;;13.50;99.90;;;;;;5050581;28;20045;-62
2022/10/14 12:21:19;;;;;;;10.48;7.28;;;13.50;99.90;;;;;;5052939;28;20041;-62
2022/10/14 12:23:48;;;;;;;13.10;7.30;;;13.50;99.90;;;;;;5066752;28;20037;-62
2022/10/14 12:26:23;;;;;;;12.32;7.28;;;13.50;99.90;;;;;;5050556;28;20053;-62
2022/10/14 12:28:50;;;;;;;11.18;6.80;;;13.50;99.90;;;;;;5033463;28;20090;-62
2022/10/14 12:31:31;;;;;;;11.98;7.20;;;13.50;99.90;;;;;;5051752;28;20059;-62
2022/10/14 12:34:14;;;;;;;14.15;7.00;;;13.50;99.90;;;;;;5051224;28;20051;-63
2022/10/14 12:36:49;;;;;;;10.30;6.30;;;13.50;99.90;;;;;;5051547;28;20083;-62
2022/10/14 12:39:17;;;;;;;10.50;6.25;;;13.50;99.90;;;;;;5049532;28;20041;-62
2022/10/14 12:41:55;;;;;;;10.02;5.93;;;13.50;99.90;;;;;;5050575;28;20049;-64
2022/10/14 12:44:39;;;;;;;13.20;6.80;;;13.50;99.90;;;;;;5033541;28;20379;-62
2022/10/14 12:47:19;;;;;;;13.07;7.27;;;13.50;99.90;;;;;;5049722;28;20044;-63
2022/10/14 12:49:53;;;;;;;10.27;6.15;;;13.50;99.90;;;;;;5050540;28;20303;-64
2022/10/14 12:52:38;;;;;;;11.10;6.50;;;13.50;99.90;;;;;;5050381;28;20545;-64
2022/10/14 12:55:14;;;;;;;11.93;7.10;;;13.50;99.90;;;;;;5049802;28;20044;-64
2022/10/14 12:57:40;;;;;;;12.50;6.70;;;13.50;99.90;;;;;;5047981;28;20079;-64
2022/10/14 13:00:25;;;;;;;12.27;6.75;;;13.50;99.90;;;;;;5047477;28;20077;-64
2022/10/14 13:02:58;;;;;;;13.57;6.60;;;13.50;99.90;;;;;;5039848;28;20651;-64
2022/10/14 13:05:37;;;;;;;12.07;6.60;;;13.50;99.90;;;;;;5041097;28;20775;-64
2022/10/14 13:08:18;;;;;;;12.13;6.75;;;13.50;99.90;;;;;;5073900;28;20048;-64
2022/10/14 13:10:57;;;;;;;11.20;6.55;;;13.50;99.90;;;;;;5050000;28;20460;-63
2022/10/14 13:13:39;;;;;;;16.90;7.68;;;13.50;99.90;;;;;;5077556;28;20047;-63
2022/10/14 13:16:09;;;;;;;13.82;7.75;;;13.50;99.90;;;;;;5047843;28;20053;-64
2022/10/14 13:18:37;;;;;;;11.75;6.53;;;13.50;99.90;;;;;;5050536;28;20033;-63
2022/10/14 13:21:09;;;;;;;11.77;6.50;;;13.50;99.90;;;;;;5048745;28;20146;-64
2022/10/14 13:23:43;;;;;;;12.38;6.43;;;13.50;99.90;;;;;;5050051;28;20047;-63
2022/10/14 13:26:28;;;;;;;12.13;6.85;;;13.50;99.90;;;;;;5049414;28;20064;-64
2022/10/14 13:29:05;;;;;;;11.32;6.13;;;13.50;99.90;;;;;;5049031;28;20540;-63
2022/10/14 13:31:48;;;;;;;11.38;6.40;;;13.50;99.90;;;;;;5049117;28;20083;-63
2022/10/14 13:34:28;;;;;;;10.82;6.13;;;13.50;99.90;;;;;;5048445;28;20076;-63
2022/10/14 13:37:24;;;;;;;11.93;5.80;;;13.50;99.90;;;;;;5032489;28;20037;-63
2022/10/14 13:39:50;;;;;;;10.13;5.95;;;13.50;99.90;;;;;;5049543;28;20033;-63
2022/10/14 13:42:30;;;;;;;9.73;5.53;;;13.60;99.90;;;;;;5047669;28;20547;-63